Tropical Cyclones
[Index]
Main Index Home Page Stock Weather Photos Extreme Storms Discussion Storm News and Storm Chasing Reports Tropical Cyclones / Hurricanes / Typhoons Weather Data and Links Wild Fires / Bushfires Weather Observation Techniques Weather Picture Catalogue Tornado Pictures and Reports Stock Video Footage and DVDs for sale
Season 2011-2012 Tropical Cyclone HILWA Track Map
Season 2011-2012 Summaries: [BoM-AU] [JTWC-AU] [JTWC-SIO] [JTWC-SPAC] [JTWC-SH]
<<- Previous TC | JTWC 2011-2012 Season | Next TC ->>

click for intensity scale information  Lat/long Grid: Show Hide

 Date Labels: Show Hide

Joint Typhoon Warning Centre Cyclone Data

Name: HILWA

11 Feb 2012 06:00 UTC to 23 Feb 2012 12:00 UTC

    date/time    lat    long     hPa   cat  kts
2012-02-11 06   11.6   109.5    1007         20          
2012-02-11 12   11.3   107.8    1007         20          
2012-02-11 18   11.2   106.2    1004         25          
2012-02-12 00   11.5   104.6    1004         25          
2012-02-12 06   11.6   103.0    1004         25          
2012-02-12 12   11.8   101.5    1004         25          
2012-02-12 18   12.0   100.0    1000         30          
2012-02-13 00   12.0    98.6    1000         30          
2012-02-13 06   12.1    97.2    1000         30          
2012-02-13 12   12.2    95.8    1000         30          
2012-02-13 18   12.5    94.3    1000         30          
2012-02-14 00   12.9    92.7    1000         30          
2012-02-14 06   13.5    91.1     996         35          
2012-02-14 12   13.9    89.4     996         35          
2012-02-14 18   14.3    87.7     996         35          
2012-02-15 00   14.3    86.4     996         35          
2012-02-15 06   14.5    85.3     996         35          
2012-02-15 12   14.7    84.4     996         35          
2012-02-15 18   15.0    83.5     996         35          
2012-02-16 00   14.9    82.6     996         35          
2012-02-16 06   15.0    81.9     993    1    40          
2012-02-16 12   15.0    81.5     993    1    40          
2012-02-16 18   15.1    81.1     996         35          
2012-02-17 00   15.4    81.0     996         35          
2012-02-17 06   15.5    80.5    1000         30          
2012-02-17 12   16.4    80.3    1000         30          
2012-02-17 18   16.9    79.1    1000         30          
2012-02-18 00   17.1    77.8    1000         30          
2012-02-18 06   17.3    77.2     996         35          
2012-02-18 12   17.6    76.1     996         35          
2012-02-18 18   17.8    74.7     996         35          
2012-02-19 00   18.1    73.1    1000         30          
2012-02-19 06   18.6    71.5    1000         30          
2012-02-19 12   18.8    69.8    1004         25          
2012-02-19 18   19.1    68.2    1004         25          
2012-02-20 00   19.1    66.8    1004         25          
2012-02-20 06   18.8    65.9    1000         30          
2012-02-20 12   18.9    65.3     996         35          
2012-02-20 18   19.1    64.8     996         35          
2012-02-21 00   19.2    64.4     993    1    40          
2012-02-21 06   19.6    64.2     993    1    40          
2012-02-21 12   20.0    64.0     993    1    40          
2012-02-21 18   20.6    63.8     993    1    40          
2012-02-22 00   21.5    63.7     996         35          
2012-02-22 06   22.5    63.7     996         35          
2012-02-22 12   23.6    63.7     996         35          
2012-02-22 18   25.3    63.7    1000         30          
2012-02-23 00   27.9    63.7    1004         25          
2012-02-23 06   30.1    64.0    1007         20          
2012-02-23 12   32.7    64.6    1007         20          
Winds are 1-min average.

Tropical cyclone tracks developed by Michael Bath using data from the Joint Typhoon Warning Centre Best Tracks and Google Maps.


[Australian Severe Weather index] [Copyright Notice] [Email Contacts] [Search This Site] [Privacy Policy]
Document: tropical_cyclone_hilwa.htm Updated: 28 June 2017